Time;durP1;ratioP1;P1;durP2;ratioP2;P2;SDS_P1;SDS_P2;PMS_P1;PMS_P2;Temp;Humidity;BMP_temperature;BMP_pressure;BME280_temperature;BME280_humidity;BME280_pressure;Samples;Min_cycle;Max_cycle;Signal;HPM_P1;HPM_P2
2021/01/10 00:00:13;;;;;;;6.88;5.15;;;19.40;47.80;;;;;;4963156;28;20409;-59
2021/01/10 00:02:39;;;;;;;7.82;5.47;;;19.40;47.70;;;;;;4946914;28;20031;-57
2021/01/10 00:05:09;;;;;;;7.70;5.32;;;19.40;47.70;;;;;;4962750;28;20066;-56
2021/01/10 00:07:34;;;;;;;7.30;5.35;;;19.40;47.80;;;;;;4963679;28;20074;-61
2021/01/10 00:10:00;;;;;;;6.32;5.00;;;19.40;47.70;;;;;;4963546;28;20500;-60
2021/01/10 00:12:28;;;;;;;7.03;5.57;;;19.40;47.70;;;;;;4947059;28;20154;-59
2021/01/10 00:14:55;;;;;;;6.65;5.55;;;19.40;47.70;;;;;;4946759;28;20039;-57
2021/01/10 00:17:20;;;;;;;9.60;5.80;;;19.40;47.60;;;;;;4963653;28;20038;-59
2021/01/10 00:19:46;;;;;;;6.55;5.43;;;19.40;47.60;;;;;;4963562;28;20034;-58
2021/01/10 00:22:13;;;;;;;7.15;6.03;;;19.40;47.60;;;;;;4930592;28;20038;-63
2021/01/10 00:24:38;;;;;;;8.77;6.00;;;19.40;47.70;;;;;;4964339;28;20074;-60
2021/01/10 00:27:09;;;;;;;6.70;5.20;;;19.40;47.70;;;;;;4963916;28;20122;-59
2021/01/10 00:29:35;;;;;;;5.97;5.38;;;19.40;47.60;;;;;;4947137;28;20035;-57
2021/01/10 00:32:01;;;;;;;6.75;5.47;;;19.40;47.60;;;;;;4963377;28;20480;-58
2021/01/10 00:34:27;;;;;;;8.38;5.60;;;19.40;47.60;;;;;;4963013;28;20058;-60
2021/01/10 00:36:52;;;;;;;7.07;5.68;;;19.40;47.60;;;;;;4963380;28;20026;-57
2021/01/10 00:39:18;;;;;;;8.30;6.32;;;19.40;47.60;;;;;;4963423;28;20115;-60
2021/01/10 00:41:43;;;;;;;8.13;5.60;;;19.40;47.60;;;;;;4963647;28;20102;-65
2021/01/10 00:44:09;;;;;;;7.47;6.03;;;19.40;47.60;;;;;;4964138;28;20027;-59
2021/01/10 00:46:34;;;;;;;7.10;5.85;;;19.40;47.50;;;;;;4962833;28;20065;-60
2021/01/10 00:49:00;;;;;;;8.05;6.57;;;19.40;47.50;;;;;;4969892;22;20049;-62
2021/01/10 00:51:26;;;;;;;6.22;5.32;;;19.40;47.50;;;;;;5011718;28;20510;-62
2021/01/10 00:53:51;;;;;;;7.55;6.03;;;19.40;47.40;;;;;;5000138;28;20038;-63
2021/01/10 00:56:17;;;;;;;7.65;6.13;;;19.40;47.40;;;;;;4982234;28;20052;-62
2021/01/10 00:58:42;;;;;;;7.40;6.05;;;19.40;47.50;;;;;;5000722;28;20022;-63
2021/01/10 01:01:08;;;;;;;7.15;6.45;;;19.40;47.40;;;;;;5000079;28;20369;-63
2021/01/10 01:03:33;;;;;;;7.30;5.15;;;19.50;47.50;;;;;;4997284;28;20037;-62
2021/01/10 01:05:59;;;;;;;7.75;6.25;;;19.40;47.40;;;;;;4997838;28;20034;-62
2021/01/10 01:08:24;;;;;;;7.03;5.82;;;19.50;47.40;;;;;;5000175;28;20492;-63
2021/01/10 01:10:50;;;;;;;6.38;5.72;;;19.50;47.40;;;;;;4965978;28;20044;-63
2021/01/10 01:13:16;;;;;;;9.20;6.10;;;19.50;48.10;;;;;;4998677;28;20475;-63
2021/01/10 01:15:41;;;;;;;7.15;6.13;;;19.40;47.40;;;;;;4999003;28;20738;-63
2021/01/10 01:18:07;;;;;;;6.72;5.68;;;19.40;47.40;;;;;;4999948;28;20037;-63
2021/01/10 01:20:33;;;;;;;9.77;6.60;;;19.40;47.30;;;;;;4983910;28;20113;-63
2021/01/10 01:23:00;;;;;;;8.02;6.13;;;19.50;48.00;;;;;;5002322;28;20034;-63
2021/01/10 01:25:25;;;;;;;8.05;6.80;;;19.50;47.30;;;;;;4984111;28;20384;-63
2021/01/10 01:27:51;;;;;;;9.60;6.65;;;19.40;47.30;;;;;;5001786;28;20053;-63
2021/01/10 01:30:16;;;;;;;8.18;5.90;;;19.40;47.20;;;;;;5004013;28;20050;-63
2021/01/10 01:32:42;;;;;;;7.18;6.13;;;19.40;47.20;;;;;;5008380;28;20052;-62
2021/01/10 01:35:08;;;;;;;9.13;7.05;;;19.40;47.30;;;;;;5007949;28;20040;-63
2021/01/10 01:37:34;;;;;;;7.90;6.28;;;19.40;47.20;;;;;;5007869;28;20030;-63
2021/01/10 01:40:00;;;;;;;8.30;6.57;;;19.50;47.20;;;;;;4990150;28;20034;-63
2021/01/10 01:42:25;;;;;;;8.35;6.43;;;19.50;47.30;;;;;;5008192;28;20068;-63
2021/01/10 01:44:51;;;;;;;9.07;6.90;;;19.40;47.80;;;;;;5007721;28;20049;-62
2021/01/10 01:47:18;;;;;;;8.30;6.20;;;19.40;47.20;;;;;;5008052;28;20436;-62
2021/01/10 01:49:44;;;;;;;7.57;6.45;;;19.50;47.30;;;;;;4990294;28;20038;-62
2021/01/10 01:52:09;;;;;;;8.55;6.50;;;19.40;47.20;;;;;;4990072;28;20044;-61
2021/01/10 01:54:35;;;;;;;8.15;6.80;;;19.40;47.20;;;;;;4988733;28;20022;-62
2021/01/10 01:57:01;;;;;;;7.57;6.57;;;19.50;47.20;;;;;;5008352;28;20022;-63
2021/01/10 01:59:26;;;;;;;8.43;6.25;;;19.50;47.20;;;;;;4990604;28;20056;-62
2021/01/10 02:01:52;;;;;;;8.80;6.82;;;19.50;47.20;;;;;;5007223;28;20779;-62
2021/01/10 02:04:30;;;;;;;7.25;5.80;;;19.40;47.20;;;;;;5008217;28;20026;-62
2021/01/10 02:06:58;;;;;;;9.65;6.45;;;19.40;47.20;;;;;;5002953;28;20050;-62
2021/01/10 02:09:24;;;;;;;8.32;6.45;;;19.40;47.20;;;;;;4987980;28;20606;-62
2021/01/10 02:11:52;;;;;;;7.63;6.07;;;19.40;47.20;;;;;;4987421;28;20109;-63
2021/01/10 02:14:20;;;;;;;9.85;6.82;;;19.30;47.20;;;;;;4971135;28;20022;-62
2021/01/10 02:16:45;;;;;;;8.30;6.53;;;19.30;47.20;;;;;;5004928;28;20061;-62
2021/01/10 02:19:19;;;;;;;8.68;6.55;;;19.30;47.30;;;;;;4988224;28;21048;-61
2021/01/10 02:21:44;;;;;;;8.48;6.78;;;19.20;47.20;;;;;;4989809;28;20395;-62
2021/01/10 02:24:10;;;;;;;9.80;7.28;;;19.20;47.40;;;;;;4990276;28;20036;-62
2021/01/10 02:26:36;;;;;;;9.88;6.88;;;19.20;47.40;;;;;;4989179;28;20037;-62
2021/01/10 02:29:01;;;;;;;7.72;5.68;;;19.10;47.40;;;;;;4990071;28;20117;-62
2021/01/10 02:31:27;;;;;;;9.15;7.03;;;19.10;47.40;;;;;;4989288;28;20217;-62
2021/01/10 02:33:55;;;;;;;8.90;6.43;;;19.00;47.40;;;;;;4990687;28;20022;-62
2021/01/10 02:36:37;;;;;;;9.38;6.40;;;19.00;47.50;;;;;;4988929;28;21667;-62
2021/01/10 02:39:28;;;;;;;8.10;6.45;;;18.90;47.50;;;;;;4992295;28;20033;-62
2021/01/10 02:42:08;;;;;;;7.85;5.90;;;18.90;47.60;;;;;;4988743;28;20316;-62
2021/01/10 02:44:41;;;;;;;9.40;6.88;;;18.90;47.60;;;;;;4988580;28;20040;-62
2021/01/10 02:47:07;;;;;;;7.10;5.63;;;18.90;47.70;;;;;;4987300;28;20072;-62
2021/01/10 02:49:33;;;;;;;7.20;6.28;;;18.90;47.70;;;;;;5004278;28;20026;-61
2021/01/10 02:51:58;;;;;;;9.70;6.68;;;18.80;47.60;;;;;;4985950;28;20040;-62
2021/01/10 02:54:24;;;;;;;8.05;6.40;;;18.80;47.70;;;;;;5004545;28;20046;-63
2021/01/10 02:56:57;;;;;;;10.15;6.40;;;18.70;47.70;;;;;;5002646;28;20028;-63
2021/01/10 02:59:25;;;;;;;8.05;6.40;;;18.80;47.70;;;;;;4987483;28;20035;-63
2021/01/10 03:01:50;;;;;;;7.53;5.97;;;18.80;47.90;;;;;;4986087;28;20111;-63
2021/01/10 03:04:16;;;;;;;8.20;6.57;;;18.70;47.80;;;;;;4986755;28;20407;-62
2021/01/10 03:06:42;;;;;;;7.93;6.15;;;18.70;47.80;;;;;;4985419;28;20060;-63
2021/01/10 03:09:08;;;;;;;7.40;6.32;;;18.70;47.80;;;;;;4970494;28;20065;-63
2021/01/10 03:11:33;;;;;;;7.90;6.82;;;18.60;47.80;;;;;;4986133;28;20056;-62
2021/01/10 03:13:59;;;;;;;8.88;6.40;;;18.70;47.70;;;;;;4986713;28;20038;-63
2021/01/10 03:16:24;;;;;;;8.10;6.38;;;18.60;47.60;;;;;;5004217;28;20530;-63
2021/01/10 03:18:50;;;;;;;8.45;6.38;;;18.60;48.20;;;;;;4986740;28;20034;-63
2021/01/10 03:21:15;;;;;;;9.52;7.25;;;18.60;47.60;;;;;;4987422;28;20507;-61
2021/01/10 03:23:41;;;;;;;8.20;6.70;;;18.60;47.70;;;;;;5005163;28;20384;-63
2021/01/10 03:26:06;;;;;;;9.45;6.80;;;18.60;47.70;;;;;;5003985;28;20170;-63
2021/01/10 03:28:32;;;;;;;9.15;6.82;;;18.60;47.70;;;;;;5004813;28;20033;-62
2021/01/10 03:30:58;;;;;;;10.38;7.32;;;18.60;47.70;;;;;;5003829;28;20030;-62
2021/01/10 03:33:23;;;;;;;7.60;6.78;;;18.60;47.70;;;;;;5004283;28;20145;-62
2021/01/10 03:35:49;;;;;;;8.73;6.78;;;18.60;47.60;;;;;;4985632;28;20034;-62
2021/01/10 03:38:14;;;;;;;9.80;6.95;;;18.70;47.60;;;;;;5004541;28;20327;-63
2021/01/10 03:40:40;;;;;;;7.32;5.97;;;18.80;47.50;;;;;;5003468;28;20026;-63
2021/01/10 03:43:05;;;;;;;8.35;6.40;;;18.90;47.40;;;;;;4986077;28;20552;-63
2021/01/10 03:45:31;;;;;;;9.10;6.65;;;19.00;47.30;;;;;;4986017;28;20034;-63
2021/01/10 03:47:56;;;;;;;9.23;6.60;;;19.10;47.20;;;;;;5003387;28;20030;-61
2021/01/10 03:50:22;;;;;;;8.80;6.68;;;19.10;47.00;;;;;;4985389;28;20666;-63
2021/01/10 03:52:47;;;;;;;8.07;6.30;;;19.20;47.00;;;;;;4985877;28;20029;-63
2021/01/10 03:55:13;;;;;;;9.48;6.68;;;19.20;46.90;;;;;;5003718;28;20029;-63
2021/01/10 03:57:38;;;;;;;6.72;5.55;;;19.30;46.90;;;;;;5002757;28;20037;-63
2021/01/10 04:00:05;;;;;;;8.70;6.57;;;19.40;46.80;;;;;;4969364;28;20140;-64
2021/01/10 04:02:31;;;;;;;8.30;6.70;;;19.40;46.70;;;;;;4985433;28;20034;-63
2021/01/10 04:04:56;;;;;;;7.35;6.22;;;19.50;46.60;;;;;;5003058;28;20445;-63
2021/01/10 04:07:22;;;;;;;7.57;6.00;;;19.60;46.50;;;;;;5002434;28;20087;-63
2021/01/10 04:09:47;;;;;;;7.40;5.85;;;19.60;46.50;;;;;;4985450;28;20433;-63
2021/01/10 04:12:13;;;;;;;7.78;5.95;;;19.70;46.40;;;;;;5002855;28;20033;-62
2021/01/10 04:14:38;;;;;;;8.52;6.25;;;19.70;46.30;;;;;;5003358;28;20034;-63
2021/01/10 04:17:04;;;;;;;8.02;6.03;;;19.80;46.20;;;;;;5002133;28;20034;-62
2021/01/10 04:19:29;;;;;;;7.63;5.85;;;19.80;46.10;;;;;;5003316;28;20026;-62
2021/01/10 04:21:55;;;;;;;8.35;5.88;;;19.80;46.10;;;;;;5002411;28;20045;-63
2021/01/10 04:24:20;;;;;;;8.02;6.30;;;19.90;46.20;;;;;;5003119;28;20022;-62
2021/01/10 04:26:47;;;;;;;6.55;5.70;;;19.90;46.20;;;;;;5001786;28;20129;-63
2021/01/10 04:29:13;;;;;;;8.27;6.43;;;19.90;46.20;;;;;;4985042;28;20041;-63
2021/01/10 04:31:39;;;;;;;7.28;6.07;;;19.90;46.10;;;;;;5001921;28;20050;-62
2021/01/10 04:34:05;;;;;;;7.20;5.82;;;19.90;46.10;;;;;;5002595;28;20038;-63
2021/01/10 04:36:30;;;;;;;8.63;6.55;;;19.90;46.00;;;;;;5003054;28;20030;-63
2021/01/10 04:38:56;;;;;;;8.80;6.65;;;19.90;46.10;;;;;;4968987;28;20052;-62
2021/01/10 04:41:23;;;;;;;7.32;6.47;;;19.80;45.90;;;;;;5002356;28;20033;-62
2021/01/10 04:43:48;;;;;;;10.02;7.28;;;19.90;46.00;;;;;;5002198;28;20049;-62
2021/01/10 04:46:14;;;;;;;8.20;6.40;;;19.90;46.00;;;;;;4984362;28;20696;-62
2021/01/10 04:48:39;;;;;;;8.75;6.85;;;19.80;45.90;;;;;;4984286;28;20690;-64
2021/01/10 04:51:05;;;;;;;7.60;6.45;;;19.80;45.90;;;;;;4983045;28;20046;-63
2021/01/10 04:53:31;;;;;;;8.00;6.20;;;19.80;46.60;;;;;;5002476;28;20130;-62
2021/01/10 04:55:57;;;;;;;7.65;6.30;;;19.80;45.90;;;;;;4984416;28;20034;-63
2021/01/10 04:58:25;;;;;;;9.10;6.72;;;19.70;45.80;;;;;;4984940;28;20060;-63
2021/01/10 05:00:50;;;;;;;9.40;6.88;;;19.80;45.80;;;;;;4984352;28;20474;-63
2021/01/10 05:03:16;;;;;;;8.25;6.40;;;19.70;45.90;;;;;;4984495;28;20042;-63
2021/01/10 05:05:42;;;;;;;7.68;6.05;;;19.70;45.80;;;;;;4983529;28;20038;-63
2021/01/10 05:08:08;;;;;;;8.25;6.80;;;19.60;45.80;;;;;;5001907;28;20403;-63
2021/01/10 05:10:34;;;;;;;8.20;6.50;;;19.60;45.80;;;;;;5002401;28;20036;-63
2021/01/10 05:13:00;;;;;;;8.38;7.07;;;19.60;45.80;;;;;;5001704;28;20491;-63
2021/01/10 05:15:25;;;;;;;8.00;6.32;;;19.60;45.80;;;;;;5001112;28;20030;-63
2021/01/10 05:17:55;;;;;;;9.25;7.70;;;19.60;45.90;;;;;;5001356;28;20037;-63
2021/01/10 05:20:21;;;;;;;7.75;6.30;;;19.60;45.90;;;;;;5000939;28;20132;-63
2021/01/10 05:22:50;;;;;;;7.75;6.32;;;19.50;45.80;;;;;;5001490;28;20120;-63
2021/01/10 05:25:15;;;;;;;6.80;6.05;;;19.50;45.90;;;;;;4983570;28;20049;-63
2021/01/10 05:27:43;;;;;;;7.55;6.35;;;19.50;45.90;;;;;;4982760;28;20491;-63
2021/01/10 05:30:09;;;;;;;8.70;6.82;;;19.50;46.00;;;;;;4984115;28;20530;-63
2021/01/10 05:32:35;;;;;;;7.75;6.55;;;19.40;45.90;;;;;;5002482;28;20026;-63
2021/01/10 05:35:00;;;;;;;7.25;6.32;;;19.40;45.90;;;;;;4967501;28;20443;-63
2021/01/10 05:37:26;;;;;;;8.00;6.20;;;19.40;45.90;;;;;;5001239;28;20034;-62
2021/01/10 05:39:52;;;;;;;8.43;6.18;;;19.40;45.90;;;;;;4984260;28;20319;-62
2021/01/10 05:42:18;;;;;;;7.43;5.95;;;19.40;45.90;;;;;;5000705;28;20037;-63
2021/01/10 05:44:43;;;;;;;9.25;6.45;;;19.50;45.90;;;;;;4983712;28;20029;-63
2021/01/10 05:47:10;;;;;;;9.65;7.10;;;19.50;45.80;;;;;;5000910;28;20037;-67
2021/01/10 05:49:46;;;;;;;8.10;6.00;;;19.40;45.70;;;;;;4984070;28;20034;-63
2021/01/10 05:52:12;;;;;;;8.73;6.63;;;19.40;45.80;;;;;;4984544;28;20041;-63
2021/01/10 05:54:39;;;;;;;7.38;6.40;;;19.40;45.90;;;;;;5002213;28;20214;-61
2021/01/10 05:57:15;;;;;;;8.30;6.43;;;19.40;45.80;;;;;;4983104;28;20420;-62
2021/01/10 05:59:44;;;;;;;7.65;6.43;;;19.40;45.90;;;;;;5002264;28;20117;-62
2021/01/10 06:02:09;;;;;;;6.95;5.85;;;19.40;45.90;;;;;;5002397;28;20480;-68
2021/01/10 06:04:35;;;;;;;6.88;5.60;;;19.40;45.80;;;;;;4984709;28;20053;-62
2021/01/10 06:07:00;;;;;;;7.32;5.75;;;19.30;45.90;;;;;;5001832;28;20148;-63
2021/01/10 06:09:26;;;;;;;8.70;6.25;;;19.40;46.60;;;;;;4968037;28;20042;-62
2021/01/10 06:11:52;;;;;;;7.47;5.97;;;19.30;45.90;;;;;;5001821;28;20341;-62
2021/01/10 06:14:24;;;;;;;9.02;6.57;;;19.40;45.90;;;;;;5002141;28;20554;-63
2021/01/10 06:16:56;;;;;;;8.15;6.70;;;19.30;45.90;;;;;;5003578;28;20363;-63
2021/01/10 06:19:26;;;;;;;8.50;6.18;;;19.40;45.90;;;;;;4988986;28;20096;-63
2021/01/10 06:21:51;;;;;;;8.18;6.07;;;19.40;45.90;;;;;;5006143;28;20553;-61
2021/01/10 06:24:17;;;;;;;7.07;5.45;;;19.40;45.90;;;;;;4990008;28;20034;-62
2021/01/10 06:26:47;;;;;;;7.85;6.32;;;19.30;45.90;;;;;;4988256;28;20491;-63
2021/01/10 06:29:13;;;;;;;7.00;5.97;;;19.40;45.90;;;;;;4989134;28;20358;-62
2021/01/10 06:31:38;;;;;;;8.20;6.15;;;19.30;45.90;;;;;;4988794;28;20545;-62
2021/01/10 06:34:08;;;;;;;7.10;5.55;;;19.40;45.90;;;;;;5005129;28;20033;-63
2021/01/10 06:36:41;;;;;;;7.22;5.50;;;19.40;45.90;;;;;;5004286;28;20042;-63
2021/01/10 06:39:13;;;;;;;7.88;6.18;;;19.30;45.90;;;;;;4970617;28;20041;-62
2021/01/10 06:41:45;;;;;;;6.45;5.70;;;19.30;45.90;;;;;;4986917;28;21324;-61
2021/01/10 06:44:10;;;;;;;7.65;5.63;;;19.40;45.90;;;;;;4998941;28;20381;-63
2021/01/10 06:46:36;;;;;;;7.05;5.78;;;19.30;45.90;;;;;;4986477;28;20030;-62
2021/01/10 06:49:02;;;;;;;6.63;5.70;;;19.40;45.90;;;;;;5019289;22;20034;-62
2021/01/10 06:51:28;;;;;;;6.47;5.60;;;19.40;45.90;;;;;;4979979;28;20065;-61
2021/01/10 06:53:54;;;;;;;7.18;5.40;;;19.40;45.90;;;;;;4964377;28;20038;-61
2021/01/10 06:56:20;;;;;;;7.10;6.00;;;19.40;45.90;;;;;;4964571;28;20042;-62
2021/01/10 06:59:06;;;;;;;6.50;5.40;;;19.40;45.90;;;;;;4966458;28;20058;-63
2021/01/10 07:01:52;;;;;;;6.95;5.82;;;19.40;45.90;;;;;;4985141;28;20113;-63
2021/01/10 07:04:25;;;;;;;7.13;5.75;;;19.40;45.90;;;;;;5001555;28;20033;-61
2021/01/10 07:06:52;;;;;;;7.30;5.88;;;19.50;46.20;;;;;;4984377;28;20041;-63
2021/01/10 07:09:18;;;;;;;6.75;5.47;;;19.40;45.90;;;;;;4983414;28;20088;-63
2021/01/10 07:11:44;;;;;;;6.85;5.18;;;19.50;45.90;;;;;;4984486;28;20027;-64
2021/01/10 07:14:09;;;;;;;6.65;5.65;;;19.50;46.00;;;;;;4984130;28;20068;-65
2021/01/10 07:16:35;;;;;;;6.47;4.88;;;19.50;46.10;;;;;;5000545;28;20061;-61
2021/01/10 07:19:06;;;;;;;7.25;5.47;;;19.50;45.90;;;;;;4984065;28;20104;-60
2021/01/10 07:21:44;;;;;;;7.13;5.85;;;19.50;45.90;;;;;;4985209;28;20026;-64
2021/01/10 07:24:13;;;;;;;6.82;5.13;;;19.50;45.80;;;;;;4985955;28;20514;-64
2021/01/10 07:26:58;;;;;;;6.25;5.15;;;19.50;45.90;;;;;;5000825;28;20033;-61
2021/01/10 07:29:29;;;;;;;7.15;4.70;;;19.50;45.80;;;;;;5000165;28;20053;-61
2021/01/10 07:31:55;;;;;;;5.20;4.70;;;19.50;45.70;;;;;;4983751;28;20246;-65
2021/01/10 07:34:21;;;;;;;8.13;5.50;;;19.50;45.80;;;;;;5001038;28;20172;-63
2021/01/10 07:36:49;;;;;;;6.80;5.30;;;19.60;45.90;;;;;;4984598;28;20562;-64
2021/01/10 07:39:18;;;;;;;6.60;5.13;;;19.50;45.80;;;;;;4985335;28;20061;-64
2021/01/10 07:41:44;;;;;;;7.47;5.25;;;19.60;45.80;;;;;;5002330;28;20107;-62
2021/01/10 07:44:09;;;;;;;7.07;5.25;;;19.50;45.70;;;;;;5001899;28;20492;-63
2021/01/10 07:46:54;;;;;;;6.90;5.55;;;19.50;45.70;;;;;;4984348;28;20038;-62
2021/01/10 07:49:23;;;;;;;5.80;4.97;;;19.60;45.80;;;;;;4983100;28;20495;-63
2021/01/10 07:51:49;;;;;;;7.32;5.32;;;19.60;45.70;;;;;;4983265;28;20079;-67
2021/01/10 07:54:14;;;;;;;5.95;4.97;;;19.60;45.70;;;;;;5000818;28;20033;-61
2021/01/10 07:56:40;;;;;;;6.13;5.28;;;19.60;45.70;;;;;;4982381;28;20088;-62
2021/01/10 07:59:15;;;;;;;5.82;4.45;;;19.50;45.60;;;;;;4982882;28;20616;-62
2021/01/10 08:01:49;;;;;;;6.32;5.22;;;19.50;45.70;;;;;;5000096;28;20641;-62
2021/01/10 08:04:32;;;;;;;10.90;5.00;;;19.50;45.60;;;;;;5000367;28;20711;-61
2021/01/10 08:06:57;;;;;;;5.93;4.38;;;19.50;45.60;;;;;;4998418;28;20052;-62
2021/01/10 08:09:32;;;;;;;6.32;4.55;;;19.60;45.50;;;;;;4981849;28;20112;-61
2021/01/10 08:11:57;;;;;;;5.55;4.28;;;19.50;45.50;;;;;;4999852;28;20033;-60
2021/01/10 08:14:23;;;;;;;6.30;5.07;;;19.50;45.50;;;;;;5000344;28;20407;-62
2021/01/10 08:16:48;;;;;;;6.32;4.80;;;19.50;45.60;;;;;;4982582;28;20030;-60
2021/01/10 08:19:14;;;;;;;6.93;4.38;;;19.50;45.80;;;;;;5000270;28;20034;-61
2021/01/10 08:21:39;;;;;;;6.25;4.80;;;19.50;45.90;;;;;;4966736;28;20049;-62
2021/01/10 08:24:05;;;;;;;6.43;4.78;;;19.50;46.00;;;;;;4982439;28;20514;-60
2021/01/10 08:26:39;;;;;;;8.27;4.60;;;19.40;45.90;;;;;;4981804;28;20041;-61
2021/01/10 08:29:08;;;;;;;6.03;4.63;;;19.40;45.90;;;;;;4983273;28;20038;-59
2021/01/10 08:31:34;;;;;;;7.53;5.40;;;19.50;46.00;;;;;;4978757;28;20033;-61
2021/01/10 08:34:02;;;;;;;8.07;4.88;;;19.50;46.00;;;;;;4982806;28;20062;-62
2021/01/10 08:36:28;;;;;;;7.45;4.25;;;19.50;46.00;;;;;;4998931;28;20045;-62
2021/01/10 08:38:54;;;;;;;5.28;4.15;;;19.50;46.10;;;;;;4982120;28;20037;-62
2021/01/10 08:41:29;;;;;;;6.60;3.88;;;19.50;46.20;;;;;;4981542;28;20414;-62
2021/01/10 08:44:03;;;;;;;5.07;4.18;;;19.50;46.20;;;;;;4998451;28;20036;-63
2021/01/10 08:46:30;;;;;;;4.93;4.10;;;19.40;46.20;;;;;;4981755;28;20052;-62
2021/01/10 08:48:55;;;;;;;5.80;4.40;;;19.50;46.30;;;;;;4999511;28;20040;-65
2021/01/10 08:51:43;;;;;;;5.72;4.53;;;19.50;46.30;;;;;;4998428;28;20117;-61
2021/01/10 08:54:09;;;;;;;7.03;4.45;;;19.50;46.30;;;;;;4998344;28;20220;-61
2021/01/10 08:56:35;;;;;;;5.40;3.72;;;19.40;46.30;;;;;;4998404;28;20252;-62
2021/01/10 08:59:01;;;;;;;4.75;3.75;;;19.50;46.40;;;;;;4981631;28;20042;-62
2021/01/10 09:01:26;;;;;;;5.18;4.07;;;19.40;46.40;;;;;;4981376;28;20034;-62
2021/01/10 09:04:05;;;;;;;5.50;4.40;;;19.40;46.40;;;;;;4983125;28;20038;-63
2021/01/10 09:06:33;;;;;;;7.18;4.32;;;19.40;46.40;;;;;;4981258;28;20411;-60
2021/01/10 09:09:11;;;;;;;5.18;4.00;;;19.40;46.40;;;;;;4998861;28;20061;-63
2021/01/10 09:11:36;;;;;;;5.13;3.83;;;19.40;46.50;;;;;;4982726;28;20029;-61
2021/01/10 09:14:02;;;;;;;7.22;4.05;;;19.40;46.50;;;;;;4982155;28;20038;-62
2021/01/10 09:16:31;;;;;;;4.38;3.95;;;19.40;46.70;;;;;;4989345;28;20035;-61
2021/01/10 09:18:57;;;;;;;5.15;4.00;;;19.30;46.60;;;;;;4942001;28;20522;-62
2021/01/10 09:21:26;;;;;;;5.30;4.78;;;19.30;46.60;;;;;;4960177;28;20042;-62
2021/01/10 09:24:00;;;;;;;16.50;9.07;;;19.20;46.60;;;;;;4961932;28;20030;-62
2021/01/10 09:26:30;;;;;;;36.50;18.92;;;19.20;46.70;;;;;;4960580;28;20530;-61
2021/01/10 09:28:56;;;;;;;48.17;24.40;;;19.20;46.80;;;;;;4961067;28;20412;-62
2021/01/10 09:31:42;;;;;;;61.88;26.63;;;19.10;46.90;;;;;;4960801;28;20031;-60
2021/01/10 09:34:08;;;;;;;60.22;30.73;;;19.10;47.00;;;;;;4962961;28;20452;-62
2021/01/10 09:36:34;;;;;;;62.58;30.02;;;19.00;47.10;;;;;;4960065;28;20174;-60
2021/01/10 09:38:59;;;;;;;64.15;29.52;;;19.00;47.20;;;;;;4961965;28;20041;-63
2021/01/10 09:41:25;;;;;;;62.38;29.75;;;19.00;47.30;;;;;;4960774;28;20543;-62
2021/01/10 09:43:52;;;;;;;67.35;30.50;;;19.00;47.40;;;;;;4960906;28;20118;-62
2021/01/10 09:46:36;;;;;;;57.60;29.23;;;19.00;47.60;;;;;;4960573;28;20118;-63
2021/01/10 09:49:07;;;;;;;63.92;29.40;;;19.00;47.70;;;;;;4960157;28;20031;-61
2021/01/10 09:51:43;;;;;;;50.00;26.10;;;19.00;47.90;;;;;;4961512;28;20035;-62
2021/01/10 09:54:15;;;;;;;51.90;26.48;;;19.00;48.00;;;;;;4964981;28;20302;-61
2021/01/10 09:56:41;;;;;;;57.33;25.85;;;19.00;48.10;;;;;;4964542;28;20485;-62
2021/01/10 09:59:38;;;;;;;56.05;26.08;;;19.00;48.10;;;;;;4946820;28;20027;-62
2021/01/10 10:02:23;;;;;;;49.90;24.48;;;19.00;47.90;;;;;;4921317;28;20497;-61
2021/01/10 10:04:54;;;;;;;44.35;22.08;;;19.10;47.90;;;;;;4917329;28;20055;-63
2021/01/10 10:07:36;;;;;;;50.30;23.30;;;19.00;48.60;;;;;;4952700;28;20038;-61
2021/01/10 10:10:10;;;;;;;48.78;22.40;;;19.10;48.00;;;;;;4939740;28;20058;-62
2021/01/10 10:12:47;;;;;;;41.22;20.75;;;19.10;48.00;;;;;;4901491;28;20052;-61
2021/01/10 10:15:13;;;;;;;46.13;20.55;;;19.10;48.10;;;;;;4931917;28;20108;-61
2021/01/10 10:17:39;;;;;;;37.95;20.63;;;19.10;48.10;;;;;;4963573;28;20062;-62
2021/01/10 10:20:05;;;;;;;35.70;18.55;;;19.10;48.00;;;;;;4945049;28;20045;-65
2021/01/10 10:22:32;;;;;;;29.95;17.52;;;19.10;48.20;;;;;;4942095;28;20042;-67
2021/01/10 10:24:59;;;;;;;46.55;19.80;;;19.20;48.30;;;;;;4956805;28;20050;-59
2021/01/10 10:27:25;;;;;;;37.45;17.58;;;19.20;48.30;;;;;;4933944;28;20035;-59
2021/01/10 10:29:51;;;;;;;36.20;17.45;;;19.20;48.50;;;;;;4948709;28;20030;-62
2021/01/10 10:32:16;;;;;;;41.13;16.98;;;19.20;48.30;;;;;;4947601;28;21087;-61
2021/01/10 10:34:42;;;;;;;34.53;17.02;;;19.20;48.30;;;;;;4948048;28;20081;-61
2021/01/10 10:37:07;;;;;;;34.85;16.70;;;19.20;48.50;;;;;;4945678;28;20638;-61
2021/01/10 10:39:34;;;;;;;31.73;15.50;;;19.20;48.40;;;;;;4964884;28;20338;-61
2021/01/10 10:42:00;;;;;;;33.72;15.32;;;19.30;48.40;;;;;;4947239;28;20022;-62
2021/01/10 10:44:25;;;;;;;33.15;15.82;;;19.20;48.30;;;;;;4955700;28;20069;-60
2021/01/10 10:46:51;;;;;;;30.35;15.68;;;19.20;48.40;;;;;;4941000;28;20039;-60
2021/01/10 10:49:16;;;;;;;29.75;14.10;;;19.30;48.30;;;;;;4964540;28;20400;-65
2021/01/10 10:51:42;;;;;;;26.95;14.80;;;19.30;48.30;;;;;;4964952;28;20035;-61
2021/01/10 10:54:09;;;;;;;29.05;15.02;;;19.30;48.30;;;;;;4937280;28;20035;-60
2021/01/10 10:56:36;;;;;;;24.90;14.77;;;19.30;48.30;;;;;;4951054;28;20058;-61
2021/01/10 10:59:02;;;;;;;26.90;13.07;;;19.30;48.30;;;;;;4980958;28;20033;-61
2021/01/10 11:01:39;;;;;;;28.55;14.57;;;19.40;48.30;;;;;;4983222;28;20031;-62
2021/01/10 11:04:05;;;;;;;26.67;14.18;;;19.30;48.20;;;;;;4966049;28;20034;-67
2021/01/10 11:06:31;;;;;;;27.80;13.85;;;19.40;48.20;;;;;;4966028;28;20038;-62
2021/01/10 11:08:56;;;;;;;21.58;12.57;;;19.40;48.20;;;;;;4981973;28;20647;-62
2021/01/10 11:11:22;;;;;;;28.80;12.55;;;19.40;48.20;;;;;;4981273;28;20061;-61
2021/01/10 11:13:47;;;;;;;23.55;12.63;;;19.40;48.20;;;;;;4981737;28;20030;-62
2021/01/10 11:16:13;;;;;;;19.67;11.75;;;19.40;48.10;;;;;;4980498;28;20141;-62
2021/01/10 11:18:38;;;;;;;23.77;12.07;;;19.40;48.00;;;;;;4980916;28;20499;-60
2021/01/10 11:21:04;;;;;;;19.88;11.43;;;19.30;48.10;;;;;;4983498;28;20045;-62
2021/01/10 11:23:30;;;;;;;25.00;12.73;;;19.30;48.20;;;;;;4982463;28;20571;-62
2021/01/10 11:25:55;;;;;;;19.98;10.77;;;19.30;48.20;;;;;;4982511;28;20221;-62
2021/01/10 11:28:21;;;;;;;21.17;12.02;;;19.30;48.20;;;;;;4982830;28;20041;-66
2021/01/10 11:30:46;;;;;;;23.05;11.93;;;19.20;48.20;;;;;;4970724;28;20054;-60
2021/01/10 11:33:12;;;;;;;18.45;10.77;;;19.30;48.20;;;;;;4962927;28;20026;-63
2021/01/10 11:35:39;;;;;;;18.27;10.57;;;19.20;48.20;;;;;;4961559;28;20392;-63
2021/01/10 11:38:04;;;;;;;20.48;11.70;;;19.20;48.20;;;;;;4963798;28;20059;-62
2021/01/10 11:40:30;;;;;;;22.23;11.93;;;19.20;48.30;;;;;;4963412;28;20031;-62
2021/01/10 11:42:55;;;;;;;19.05;10.10;;;19.10;48.20;;;;;;4962661;28;20034;-61
2021/01/10 11:45:21;;;;;;;23.50;11.05;;;19.20;48.20;;;;;;4963739;28;20030;-65
2021/01/10 11:47:46;;;;;;;18.85;10.48;;;19.20;48.20;;;;;;4945534;28;20105;-62
2021/01/10 11:50:12;;;;;;;19.98;11.38;;;19.20;48.10;;;;;;4962755;28;20039;-62
2021/01/10 11:52:37;;;;;;;22.50;10.77;;;19.20;48.10;;;;;;4963348;28;20049;-62
2021/01/10 11:55:03;;;;;;;19.02;10.65;;;19.20;48.20;;;;;;4961948;28;20030;-59
2021/01/10 11:57:29;;;;;;;19.52;10.90;;;19.20;48.10;;;;;;4962319;28;20034;-61
2021/01/10 11:59:54;;;;;;;22.17;10.57;;;19.20;48.10;;;;;;4962782;28;20022;-63
2021/01/10 12:02:20;;;;;;;19.80;10.00;;;19.20;48.00;;;;;;4961376;28;20078;-62
2021/01/10 12:04:45;;;;;;;18.60;10.63;;;19.20;48.00;;;;;;4961565;28;20031;-62
2021/01/10 12:07:11;;;;;;;18.55;10.48;;;19.20;47.90;;;;;;4962429;28;20030;-61
2021/01/10 12:09:36;;;;;;;16.50;10.50;;;19.20;47.80;;;;;;4961724;28;20493;-62
2021/01/10 12:12:02;;;;;;;15.48;9.63;;;19.20;47.80;;;;;;4962325;28;20125;-61
2021/01/10 12:14:29;;;;;;;17.88;10.38;;;19.20;47.70;;;;;;4963456;28;20106;-63
2021/01/10 12:16:54;;;;;;;13.32;9.52;;;19.20;47.60;;;;;;4961970;28;20027;-59
2021/01/10 12:19:21;;;;;;;16.00;10.13;;;19.20;47.50;;;;;;4962432;28;20109;-62
2021/01/10 12:21:48;;;;;;;15.05;8.68;;;19.20;47.50;;;;;;4962125;28;20357;-60
2021/01/10 12:24:14;;;;;;;16.52;10.10;;;19.20;47.40;;;;;;4962935;28;20033;-63
2021/01/10 12:26:39;;;;;;;12.68;9.40;;;19.30;47.40;;;;;;4961760;28;20027;-62
2021/01/10 12:29:05;;;;;;;15.32;9.23;;;19.30;47.40;;;;;;4962465;28;20421;-63
2021/01/10 12:31:30;;;;;;;13.90;9.57;;;19.20;47.30;;;;;;4962093;28;20410;-66
2021/01/10 12:33:55;;;;;;;12.85;8.68;;;19.30;47.30;;;;;;4945957;28;20038;-61
2021/01/10 12:36:21;;;;;;;14.00;8.52;;;19.30;47.30;;;;;;4962903;28;20031;-62
2021/01/10 12:38:46;;;;;;;17.35;9.75;;;19.30;47.20;;;;;;4963458;28;20246;-62
2021/01/10 12:41:12;;;;;;;11.98;8.60;;;19.30;47.20;;;;;;4963311;28;20031;-60